sensor_id;sensor_type;location;lat;lon;timestamp;temperature;humidity
81202;DHT22;71068;47.662;-2.750;2023-09-07T00:01:58;27.10;67.00
81202;DHT22;71068;47.662;-2.750;2023-09-07T00:04:26;27.10;66.80
81202;DHT22;71068;47.662;-2.750;2023-09-07T00:06:52;27.00;66.70
81202;DHT22;71068;47.662;-2.750;2023-09-07T00:09:19;27.00;66.80
81202;DHT22;71068;47.662;-2.750;2023-09-07T00:11:49;27.00;67.00
81202;DHT22;71068;47.662;-2.750;2023-09-07T00:14:16;27.10;66.50
81202;DHT22;71068;47.662;-2.750;2023-09-07T00:16:43;27.10;66.40
81202;DHT22;71068;47.662;-2.750;2023-09-07T00:19:09;27.10;66.70
81202;DHT22;71068;47.662;-2.750;2023-09-07T00:21:35;27.10;66.60
81202;DHT22;71068;47.662;-2.750;2023-09-07T00:24:00;27.10;66.70
81202;DHT22;71068;47.662;-2.750;2023-09-07T00:26:32;27.10;66.70
81202;DHT22;71068;47.662;-2.750;2023-09-07T00:29:00;27.10;66.60
81202;DHT22;71068;47.662;-2.750;2023-09-07T00:31:27;27.10;67.20
81202;DHT22;71068;47.662;-2.750;2023-09-07T00:33:53;27.00;67.00
81202;DHT22;71068;47.662;-2.750;2023-09-07T00:36:20;27.20;66.60
81202;DHT22;71068;47.662;-2.750;2023-09-07T00:38:47;27.10;66.80
81202;DHT22;71068;47.662;-2.750;2023-09-07T00:41:14;27.10;66.70
81202;DHT22;71068;47.662;-2.750;2023-09-07T00:43:42;27.10;66.60
81202;DHT22;71068;47.662;-2.750;2023-09-07T00:46:08;27.10;66.90
81202;DHT22;71068;47.662;-2.750;2023-09-07T00:48:35;27.10;67.00
81202;DHT22;71068;47.662;-2.750;2023-09-07T00:51:01;27.10;67.50
81202;DHT22;71068;47.662;-2.750;2023-09-07T00:53:28;27.00;67.50
81202;DHT22;71068;47.662;-2.750;2023-09-07T00:55:55;27.10;67.20
81202;DHT22;71068;47.662;-2.750;2023-09-07T00:58:23;27.10;67.10
81202;DHT22;71068;47.662;-2.750;2023-09-07T01:00:49;27.10;67.10
81202;DHT22;71068;47.662;-2.750;2023-09-07T01:03:16;27.20;67.20
81202;DHT22;71068;47.662;-2.750;2023-09-07T01:08:48;27.20;67.00
81202;DHT22;71068;47.662;-2.750;2023-09-07T01:11:16;27.10;66.90
81202;DHT22;71068;47.662;-2.750;2023-09-07T01:13:42;27.10;67.30
81202;DHT22;71068;47.662;-2.750;2023-09-07T01:16:11;27.00;67.60
81202;DHT22;71068;47.662;-2.750;2023-09-07T01:18:38;27.10;67.30
81202;DHT22;71068;47.662;-2.750;2023-09-07T01:21:06;27.10;67.20
81202;DHT22;71068;47.662;-2.750;2023-09-07T01:23:37;27.20;67.10
81202;DHT22;71068;47.662;-2.750;2023-09-07T01:26:06;27.20;67.40
81202;DHT22;71068;47.662;-2.750;2023-09-07T01:28:41;27.20;67.10
81202;DHT22;71068;47.662;-2.750;2023-09-07T01:31:07;27.10;67.40
81202;DHT22;71068;47.662;-2.750;2023-09-07T01:33:34;27.10;67.10
81202;DHT22;71068;47.662;-2.750;2023-09-07T01:36:01;27.10;67.10
81202;DHT22;71068;47.662;-2.750;2023-09-07T01:38:29;27.10;67.50
81202;DHT22;71068;47.662;-2.750;2023-09-07T01:40:55;27.20;67.30
81202;DHT22;71068;47.662;-2.750;2023-09-07T01:43:21;27.10;67.40
81202;DHT22;71068;47.662;-2.750;2023-09-07T01:45:49;27.10;67.60
81202;DHT22;71068;47.662;-2.750;2023-09-07T01:48:16;27.10;67.30
81202;DHT22;71068;47.662;-2.750;2023-09-07T01:50:41;27.10;67.60
81202;DHT22;71068;47.662;-2.750;2023-09-07T01:53:08;27.10;67.50
81202;DHT22;71068;47.662;-2.750;2023-09-07T01:55:35;27.10;67.60
81202;DHT22;71068;47.662;-2.750;2023-09-07T01:58:01;27.10;67.70
81202;DHT22;71068;47.662;-2.750;2023-09-07T02:00:27;27.10;67.80
81202;DHT22;71068;47.662;-2.750;2023-09-07T02:02:55;27.00;67.90
81202;DHT22;71068;47.662;-2.750;2023-09-07T02:05:20;27.10;67.80
81202;DHT22;71068;47.662;-2.750;2023-09-07T02:07:47;27.10;67.80
81202;DHT22;71068;47.662;-2.750;2023-09-07T02:10:17;27.20;67.70
81202;DHT22;71068;47.662;-2.750;2023-09-07T02:12:45;27.10;67.70
81202;DHT22;71068;47.662;-2.750;2023-09-07T02:15:12;27.10;67.70
81202;DHT22;71068;47.662;-2.750;2023-09-07T02:17:39;27.10;67.70
81202;DHT22;71068;47.662;-2.750;2023-09-07T02:20:06;27.00;67.70
81202;DHT22;71068;47.662;-2.750;2023-09-07T02:22:36;27.00;67.70
81202;DHT22;71068;47.662;-2.750;2023-09-07T02:25:03;27.10;67.60
81202;DHT22;71068;47.662;-2.750;2023-09-07T02:27:32;27.10;67.90
81202;DHT22;71068;47.662;-2.750;2023-09-07T02:29:58;27.10;67.90
81202;DHT22;71068;47.662;-2.750;2023-09-07T02:32:24;27.10;67.80
81202;DHT22;71068;47.662;-2.750;2023-09-07T02:34:50;27.10;67.90
81202;DHT22;71068;47.662;-2.750;2023-09-07T02:37:16;27.10;67.70
81202;DHT22;71068;47.662;-2.750;2023-09-07T02:39:42;27.00;67.60
81202;DHT22;71068;47.662;-2.750;2023-09-07T02:42:09;27.10;67.60
81202;DHT22;71068;47.662;-2.750;2023-09-07T02:44:35;27.10;67.70
81202;DHT22;71068;47.662;-2.750;2023-09-07T02:47:01;27.10;67.70
81202;DHT22;71068;47.662;-2.750;2023-09-07T02:49:27;27.00;67.90
81202;DHT22;71068;47.662;-2.750;2023-09-07T02:51:55;27.00;68.20
81202;DHT22;71068;47.662;-2.750;2023-09-07T02:54:22;26.90;68.00
81202;DHT22;71068;47.662;-2.750;2023-09-07T02:56:50;26.90;68.30
81202;DHT22;71068;47.662;-2.750;2023-09-07T02:59:16;27.00;68.20
81202;DHT22;71068;47.662;-2.750;2023-09-07T03:01:42;27.00;68.40
81202;DHT22;71068;47.662;-2.750;2023-09-07T03:04:08;27.00;68.50
81202;DHT22;71068;47.662;-2.750;2023-09-07T03:06:34;26.90;68.70
81202;DHT22;71068;47.662;-2.750;2023-09-07T03:09:00;27.00;68.70
81202;DHT22;71068;47.662;-2.750;2023-09-07T03:11:25;26.90;68.70
81202;DHT22;71068;47.662;-2.750;2023-09-07T03:13:51;27.00;68.80
81202;DHT22;71068;47.662;-2.750;2023-09-07T03:16:18;26.90;68.90
81202;DHT22;71068;47.662;-2.750;2023-09-07T03:18:43;27.00;68.70
81202;DHT22;71068;47.662;-2.750;2023-09-07T03:21:10;26.90;68.90
81202;DHT22;71068;47.662;-2.750;2023-09-07T03:23:43;27.00;68.80
81202;DHT22;71068;47.662;-2.750;2023-09-07T03:26:10;27.00;69.00
81202;DHT22;71068;47.662;-2.750;2023-09-07T03:28:36;27.00;69.10
81202;DHT22;71068;47.662;-2.750;2023-09-07T03:31:04;27.00;69.20
81202;DHT22;71068;47.662;-2.750;2023-09-07T03:33:30;27.00;69.40
81202;DHT22;71068;47.662;-2.750;2023-09-07T03:35:58;26.90;69.30
81202;DHT22;71068;47.662;-2.750;2023-09-07T03:38:24;26.90;69.20
81202;DHT22;71068;47.662;-2.750;2023-09-07T03:40:51;26.90;69.10
81202;DHT22;71068;47.662;-2.750;2023-09-07T03:43:17;26.90;69.20
81202;DHT22;71068;47.662;-2.750;2023-09-07T03:45:44;26.90;69.30
81202;DHT22;71068;47.662;-2.750;2023-09-07T03:48:11;26.90;69.20
81202;DHT22;71068;47.662;-2.750;2023-09-07T03:50:37;26.90;69.40
81202;DHT22;71068;47.662;-2.750;2023-09-07T03:53:04;26.90;69.30
81202;DHT22;71068;47.662;-2.750;2023-09-07T03:55:40;27.00;69.10
81202;DHT22;71068;47.662;-2.750;2023-09-07T03:58:09;26.90;69.20
81202;DHT22;71068;47.662;-2.750;2023-09-07T04:00:40;26.90;69.20
81202;DHT22;71068;47.662;-2.750;2023-09-07T04:03:08;26.90;69.30
81202;DHT22;71068;47.662;-2.750;2023-09-07T04:05:37;26.80;69.20
81202;DHT22;71068;47.662;-2.750;2023-09-07T04:08:04;26.80;69.30
81202;DHT22;71068;47.662;-2.750;2023-09-07T04:10:31;26.90;69.20
81202;DHT22;71068;47.662;-2.750;2023-09-07T04:12:57;26.90;69.20
81202;DHT22;71068;47.662;-2.750;2023-09-07T04:15:23;26.90;69.20
81202;DHT22;71068;47.662;-2.750;2023-09-07T04:17:51;26.90;69.10
81202;DHT22;71068;47.662;-2.750;2023-09-07T04:20:17;26.90;69.10
81202;DHT22;71068;47.662;-2.750;2023-09-07T04:22:44;26.90;69.10
81202;DHT22;71068;47.662;-2.750;2023-09-07T04:25:10;26.90;69.10
81202;DHT22;71068;47.662;-2.750;2023-09-07T04:27:36;26.80;69.30
81202;DHT22;71068;47.662;-2.750;2023-09-07T04:30:02;26.80;69.50
81202;DHT22;71068;47.662;-2.750;2023-09-07T04:32:35;26.80;69.60
81202;DHT22;71068;47.662;-2.750;2023-09-07T04:35:00;26.80;69.60
81202;DHT22;71068;47.662;-2.750;2023-09-07T04:37:27;26.80;69.70
81202;DHT22;71068;47.662;-2.750;2023-09-07T04:39:53;26.80;69.70
81202;DHT22;71068;47.662;-2.750;2023-09-07T04:42:20;26.80;69.70
81202;DHT22;71068;47.662;-2.750;2023-09-07T04:44:48;26.80;69.80
81202;DHT22;71068;47.662;-2.750;2023-09-07T04:47:14;26.70;69.90
81202;DHT22;71068;47.662;-2.750;2023-09-07T04:49:49;26.70;70.00
81202;DHT22;71068;47.662;-2.750;2023-09-07T04:52:18;26.70;70.10
81202;DHT22;71068;47.662;-2.750;2023-09-07T04:54:44;26.70;70.00
81202;DHT22;71068;47.662;-2.750;2023-09-07T04:57:12;26.70;70.10
81202;DHT22;71068;47.662;-2.750;2023-09-07T04:59:39;26.70;70.20
81202;DHT22;71068;47.662;-2.750;2023-09-07T05:02:05;26.70;70.20
81202;DHT22;71068;47.662;-2.750;2023-09-07T05:04:31;26.60;70.30
81202;DHT22;71068;47.662;-2.750;2023-09-07T05:06:57;26.70;70.30
81202;DHT22;71068;47.662;-2.750;2023-09-07T05:09:23;26.70;70.10
81202;DHT22;71068;47.662;-2.750;2023-09-07T05:11:51;26.70;70.30
81202;DHT22;71068;47.662;-2.750;2023-09-07T05:14:18;26.70;70.40
81202;DHT22;71068;47.662;-2.750;2023-09-07T05:16:44;26.70;70.20
81202;DHT22;71068;47.662;-2.750;2023-09-07T05:19:11;26.60;70.30
81202;DHT22;71068;47.662;-2.750;2023-09-07T05:21:36;26.60;70.20
81202;DHT22;71068;47.662;-2.750;2023-09-07T05:24:03;26.60;70.30
81202;DHT22;71068;47.662;-2.750;2023-09-07T05:26:30;26.60;70.20
81202;DHT22;71068;47.662;-2.750;2023-09-07T05:28:55;26.60;70.10
81202;DHT22;71068;47.662;-2.750;2023-09-07T05:31:21;26.70;70.30
81202;DHT22;71068;47.662;-2.750;2023-09-07T05:33:50;26.60;70.20
81202;DHT22;71068;47.662;-2.750;2023-09-07T05:36:17;26.50;70.30
81202;DHT22;71068;47.662;-2.750;2023-09-07T05:38:43;26.60;69.90
81202;DHT22;71068;47.662;-2.750;2023-09-07T05:41:11;26.60;69.90
81202;DHT22;71068;47.662;-2.750;2023-09-07T05:43:37;26.60;70.10
81202;DHT22;71068;47.662;-2.750;2023-09-07T05:46:03;26.40;70.00
81202;DHT22;71068;47.662;-2.750;2023-09-07T05:48:35;26.40;70.30
81202;DHT22;71068;47.662;-2.750;2023-09-07T05:51:01;26.40;70.50
81202;DHT22;71068;47.662;-2.750;2023-09-07T05:53:27;26.40;70.60
81202;DHT22;71068;47.662;-2.750;2023-09-07T05:55:53;26.40;70.50
81202;DHT22;71068;47.662;-2.750;2023-09-07T05:58:19;26.30;70.60
81202;DHT22;71068;47.662;-2.750;2023-09-07T06:00:45;26.20;70.90
81202;DHT22;71068;47.662;-2.750;2023-09-07T06:03:11;26.20;71.30
81202;DHT22;71068;47.662;-2.750;2023-09-07T06:05:40;26.10;71.60
81202;DHT22;71068;47.662;-2.750;2023-09-07T06:08:07;26.10;71.90
81202;DHT22;71068;47.662;-2.750;2023-09-07T06:10:33;26.10;72.10
81202;DHT22;71068;47.662;-2.750;2023-09-07T06:12:59;26.00;72.40
81202;DHT22;71068;47.662;-2.750;2023-09-07T06:15:26;25.90;72.40
81202;DHT22;71068;47.662;-2.750;2023-09-07T06:17:53;25.90;72.60
81202;DHT22;71068;47.662;-2.750;2023-09-07T06:20:20;25.90;72.80
81202;DHT22;71068;47.662;-2.750;2023-09-07T06:22:47;25.70;73.00
81202;DHT22;71068;47.662;-2.750;2023-09-07T06:25:14;25.80;73.20
81202;DHT22;71068;47.662;-2.750;2023-09-07T06:27:42;25.80;73.60
81202;DHT22;71068;47.662;-2.750;2023-09-07T06:30:09;25.80;74.10
81202;DHT22;71068;47.662;-2.750;2023-09-07T06:32:37;25.80;74.00
81202;DHT22;71068;47.662;-2.750;2023-09-07T06:35:12;25.80;74.20
81202;DHT22;71068;47.662;-2.750;2023-09-07T06:37:38;25.70;74.00
81202;DHT22;71068;47.662;-2.750;2023-09-07T06:40:07;25.70;74.10
81202;DHT22;71068;47.662;-2.750;2023-09-07T06:42:37;25.70;74.00
81202;DHT22;71068;47.662;-2.750;2023-09-07T06:45:04;25.80;74.10
81202;DHT22;71068;47.662;-2.750;2023-09-07T06:47:30;25.70;74.10
81202;DHT22;71068;47.662;-2.750;2023-09-07T06:49:56;25.70;74.20
81202;DHT22;71068;47.662;-2.750;2023-09-07T07:49:00;25.20;78.00
81202;DHT22;71068;47.662;-2.750;2023-09-07T07:51:27;25.50;77.10
81202;DHT22;71068;47.662;-2.750;2023-09-07T07:53:54;25.70;77.10
81202;DHT22;71068;47.662;-2.750;2023-09-07T07:56:22;26.00;76.30
81202;DHT22;71068;47.662;-2.750;2023-09-07T07:58:49;26.20;76.30
81202;DHT22;71068;47.662;-2.750;2023-09-07T08:01:20;26.30;75.80
81202;DHT22;71068;47.662;-2.750;2023-09-07T08:03:46;26.60;75.00
81202;DHT22;71068;47.662;-2.750;2023-09-07T08:06:19;26.70;74.90
81202;DHT22;71068;47.662;-2.750;2023-09-07T08:08:46;26.90;74.40
81202;DHT22;71068;47.662;-2.750;2023-09-07T08:11:12;26.90;74.00
81202;DHT22;71068;47.662;-2.750;2023-09-07T08:13:47;27.00;73.60
81202;DHT22;71068;47.662;-2.750;2023-09-07T08:16:15;27.10;73.30
81202;DHT22;71068;47.662;-2.750;2023-09-07T08:18:44;27.10;73.40
81202;DHT22;71068;47.662;-2.750;2023-09-07T08:21:11;27.10;73.30
81202;DHT22;71068;47.662;-2.750;2023-09-07T08:23:40;27.20;72.70
81202;DHT22;71068;47.662;-2.750;2023-09-07T08:26:07;27.30;72.70
81202;DHT22;71068;47.662;-2.750;2023-09-07T08:28:36;27.30;72.70
81202;DHT22;71068;47.662;-2.750;2023-09-07T08:31:02;27.50;72.50
81202;DHT22;71068;47.662;-2.750;2023-09-07T08:33:31;27.50;72.40
81202;DHT22;71068;47.662;-2.750;2023-09-07T08:36:05;27.60;71.90
81202;DHT22;71068;47.662;-2.750;2023-09-07T08:38:32;27.70;71.40
81202;DHT22;71068;47.662;-2.750;2023-09-07T08:41:02;27.70;71.50
81202;DHT22;71068;47.662;-2.750;2023-09-07T08:43:33;27.80;71.50
81202;DHT22;71068;47.662;-2.750;2023-09-07T08:46:14;27.90;71.20
81202;DHT22;71068;47.662;-2.750;2023-09-07T08:48:53;27.90;69.80
81202;DHT22;71068;47.662;-2.750;2023-09-07T08:51:21;28.00;71.10
81202;DHT22;71068;47.662;-2.750;2023-09-07T08:53:54;28.30;70.70
81202;DHT22;71068;47.662;-2.750;2023-09-07T08:56:22;28.40;70.00
81202;DHT22;71068;47.662;-2.750;2023-09-07T08:58:48;28.50;69.80
81202;DHT22;71068;47.662;-2.750;2023-09-07T09:01:21;28.60;69.90
81202;DHT22;71068;47.662;-2.750;2023-09-07T09:03:49;28.70;69.30
81202;DHT22;71068;47.662;-2.750;2023-09-07T09:06:20;28.70;69.20
81202;DHT22;71068;47.662;-2.750;2023-09-07T09:08:52;28.80;68.90
81202;DHT22;71068;47.662;-2.750;2023-09-07T09:11:19;28.80;68.10
81202;DHT22;71068;47.662;-2.750;2023-09-07T09:13:49;28.70;68.30
81202;DHT22;71068;47.662;-2.750;2023-09-07T09:16:17;28.70;68.80
81202;DHT22;71068;47.662;-2.750;2023-09-07T09:18:53;28.80;68.70
81202;DHT22;71068;47.662;-2.750;2023-09-07T09:21:22;28.80;68.10
81202;DHT22;71068;47.662;-2.750;2023-09-07T09:23:51;28.90;68.20
81202;DHT22;71068;47.662;-2.750;2023-09-07T09:26:19;29.00;68.10
81202;DHT22;71068;47.662;-2.750;2023-09-07T09:28:45;29.00;68.10
81202;DHT22;71068;47.662;-2.750;2023-09-07T09:31:12;29.10;67.50
81202;DHT22;71068;47.662;-2.750;2023-09-07T09:33:42;29.20;67.70
81202;DHT22;71068;47.662;-2.750;2023-09-07T09:36:09;29.20;67.30
81202;DHT22;71068;47.662;-2.750;2023-09-07T09:38:37;29.40;68.00
81202;DHT22;71068;47.662;-2.750;2023-09-07T09:41:04;29.50;66.30
81202;DHT22;71068;47.662;-2.750;2023-09-07T09:43:31;29.30;66.60
81202;DHT22;71068;47.662;-2.750;2023-09-07T09:45:59;29.30;67.10
81202;DHT22;71068;47.662;-2.750;2023-09-07T09:48:25;29.40;64.70
81202;DHT22;71068;47.662;-2.750;2023-09-07T09:50:53;29.40;67.00
81202;DHT22;71068;47.662;-2.750;2023-09-07T09:53:21;29.80;66.80
81202;DHT22;71068;47.662;-2.750;2023-09-07T09:55:50;30.10;66.50
81202;DHT22;71068;47.662;-2.750;2023-09-07T09:58:21;30.30;65.80
81202;DHT22;71068;47.662;-2.750;2023-09-07T10:00:54;30.50;64.80
81202;DHT22;71068;47.662;-2.750;2023-09-07T10:03:30;30.60;61.20
81202;DHT22;71068;47.662;-2.750;2023-09-07T10:06:17;30.70;63.70
81202;DHT22;71068;47.662;-2.750;2023-09-07T10:09:04;31.10;63.10
81202;DHT22;71068;47.662;-2.750;2023-09-07T10:11:39;31.40;63.20
81202;DHT22;71068;47.662;-2.750;2023-09-07T10:14:06;31.80;62.40
81202;DHT22;71068;47.662;-2.750;2023-09-07T10:19:22;32.30;61.70
81202;DHT22;71068;47.662;-2.750;2023-09-07T10:21:50;32.60;56.50
81202;DHT22;71068;47.662;-2.750;2023-09-07T10:24:33;32.40;56.60
81202;DHT22;71068;47.662;-2.750;2023-09-07T10:27:06;32.20;59.00
81202;DHT22;71068;47.662;-2.750;2023-09-07T10:29:52;32.40;58.70
81202;DHT22;71068;47.662;-2.750;2023-09-07T10:32:40;32.40;55.10
81202;DHT22;71068;47.662;-2.750;2023-09-07T10:38:40;31.60;57.30
81202;DHT22;71068;47.662;-2.750;2023-09-07T10:41:14;30.60;55.40
81202;DHT22;71068;47.662;-2.750;2023-09-07T10:43:53;30.00;55.80
81202;DHT22;71068;47.662;-2.750;2023-09-07T10:46:37;30.10;57.60
81202;DHT22;71068;47.662;-2.750;2023-09-07T10:49:53;29.60;56.70
81202;DHT22;71068;47.662;-2.750;2023-09-07T10:52:22;29.70;58.30
81202;DHT22;71068;47.662;-2.750;2023-09-07T10:55:16;29.60;58.30
81202;DHT22;71068;47.662;-2.750;2023-09-07T10:58:09;29.40;59.30
81202;DHT22;71068;47.662;-2.750;2023-09-07T11:01:01;29.40;59.00
81202;DHT22;71068;47.662;-2.750;2023-09-07T11:03:30;29.10;58.20
81202;DHT22;71068;47.662;-2.750;2023-09-07T11:06:08;29.10;56.70
81202;DHT22;71068;47.662;-2.750;2023-09-07T11:08:36;28.90;56.00
81202;DHT22;71068;47.662;-2.750;2023-09-07T11:11:04;29.10;57.80
81202;DHT22;71068;47.662;-2.750;2023-09-07T11:13:31;29.10;57.90
81202;DHT22;71068;47.662;-2.750;2023-09-07T11:15:58;29.10;58.00
81202;DHT22;71068;47.662;-2.750;2023-09-07T11:18:25;29.00;58.60
81202;DHT22;71068;47.662;-2.750;2023-09-07T11:20:54;29.10;58.70
81202;DHT22;71068;47.662;-2.750;2023-09-07T11:23:22;29.20;58.40
81202;DHT22;71068;47.662;-2.750;2023-09-07T11:25:49;29.30;58.40
81202;DHT22;71068;47.662;-2.750;2023-09-07T11:28:18;29.40;58.20
81202;DHT22;71068;47.662;-2.750;2023-09-07T11:30:55;29.50;58.40
81202;DHT22;71068;47.662;-2.750;2023-09-07T11:33:22;29.40;58.70
81202;DHT22;71068;47.662;-2.750;2023-09-07T11:35:48;29.50;58.70
81202;DHT22;71068;47.662;-2.750;2023-09-07T11:38:16;29.70;58.80
81202;DHT22;71068;47.662;-2.750;2023-09-07T11:40:43;29.90;58.10
81202;DHT22;71068;47.662;-2.750;2023-09-07T11:43:15;30.00;58.50
81202;DHT22;71068;47.662;-2.750;2023-09-07T11:45:43;30.20;58.30
81202;DHT22;71068;47.662;-2.750;2023-09-07T11:48:11;30.40;58.20
81202;DHT22;71068;47.662;-2.750;2023-09-07T11:50:38;30.80;57.80
81202;DHT22;71068;47.662;-2.750;2023-09-07T11:53:07;31.00;56.50
81202;DHT22;71068;47.662;-2.750;2023-09-07T11:55:34;31.00;56.70
81202;DHT22;71068;47.662;-2.750;2023-09-07T11:58:03;30.90;49.10
81202;DHT22;71068;47.662;-2.750;2023-09-07T12:00:33;30.90;54.20
81202;DHT22;71068;47.662;-2.750;2023-09-07T12:02:59;31.00;54.00
81202;DHT22;71068;47.662;-2.750;2023-09-07T12:05:25;31.00;54.40
81202;DHT22;71068;47.662;-2.750;2023-09-07T12:07:52;31.20;54.40
81202;DHT22;71068;47.662;-2.750;2023-09-07T12:10:18;31.10;52.80
81202;DHT22;71068;47.662;-2.750;2023-09-07T12:12:46;30.80;54.00
81202;DHT22;71068;47.662;-2.750;2023-09-07T12:15:14;31.00;54.00
81202;DHT22;71068;47.662;-2.750;2023-09-07T12:17:43;30.90;53.30
81202;DHT22;71068;47.662;-2.750;2023-09-07T12:20:09;30.90;54.20
81202;DHT22;71068;47.662;-2.750;2023-09-07T12:22:41;31.00;53.80
81202;DHT22;71068;47.662;-2.750;2023-09-07T12:25:07;31.10;54.00
81202;DHT22;71068;47.662;-2.750;2023-09-07T12:27:34;31.40;54.40
81202;DHT22;71068;47.662;-2.750;2023-09-07T12:30:01;31.80;53.80
81202;DHT22;71068;47.662;-2.750;2023-09-07T12:32:28;32.20;54.00
81202;DHT22;71068;47.662;-2.750;2023-09-07T12:34:54;33.00;53.40
81202;DHT22;71068;47.662;-2.750;2023-09-07T12:37:23;33.60;52.60
81202;DHT22;71068;47.662;-2.750;2023-09-07T12:39:53;34.20;51.70
81202;DHT22;71068;47.662;-2.750;2023-09-07T12:42:22;34.60;51.30
81202;DHT22;71068;47.662;-2.750;2023-09-07T12:44:49;35.00;50.00
81202;DHT22;71068;47.662;-2.750;2023-09-07T12:47:18;35.10;49.70
81202;DHT22;71068;47.662;-2.750;2023-09-07T12:49:45;35.30;49.90
81202;DHT22;71068;47.662;-2.750;2023-09-07T12:52:11;35.30;49.10
81202;DHT22;71068;47.662;-2.750;2023-09-07T12:54:44;35.40;48.90
81202;DHT22;71068;47.662;-2.750;2023-09-07T12:57:11;35.20;45.40
81202;DHT22;71068;47.662;-2.750;2023-09-07T12:59:38;34.80;47.90
81202;DHT22;71068;47.662;-2.750;2023-09-07T13:02:09;34.50;47.10
81202;DHT22;71068;47.662;-2.750;2023-09-07T13:04:35;34.30;43.80
81202;DHT22;71068;47.662;-2.750;2023-09-07T13:07:01;34.50;48.10
81202;DHT22;71068;47.662;-2.750;2023-09-07T13:09:28;35.00;48.00
81202;DHT22;71068;47.662;-2.750;2023-09-07T13:11:54;35.20;47.00
81202;DHT22;71068;47.662;-2.750;2023-09-07T13:14:21;35.10;41.20
81202;DHT22;71068;47.662;-2.750;2023-09-07T13:16:48;35.50;45.50
81202;DHT22;71068;47.662;-2.750;2023-09-07T13:19:17;35.60;44.40
81202;DHT22;71068;47.662;-2.750;2023-09-07T13:21:45;36.00;41.80
81202;DHT22;71068;47.662;-2.750;2023-09-07T13:24:13;36.10;39.40
81202;DHT22;71068;47.662;-2.750;2023-09-07T13:27:05;36.40;42.70
81202;DHT22;71068;47.662;-2.750;2023-09-07T13:29:38;36.60;40.90
81202;DHT22;71068;47.662;-2.750;2023-09-07T13:32:05;36.30;34.90
81202;DHT22;71068;47.662;-2.750;2023-09-07T13:34:32;35.50;39.30
81202;DHT22;71068;47.662;-2.750;2023-09-07T13:36:58;35.00;36.80
81202;DHT22;71068;47.662;-2.750;2023-09-07T13:39:27;34.50;38.60
81202;DHT22;71068;47.662;-2.750;2023-09-07T13:41:53;34.80;41.60
81202;DHT22;71068;47.662;-2.750;2023-09-07T13:44:21;34.80;38.80
81202;DHT22;71068;47.662;-2.750;2023-09-07T13:46:47;35.00;41.40
81202;DHT22;71068;47.662;-2.750;2023-09-07T13:49:13;34.60;41.30
81202;DHT22;71068;47.662;-2.750;2023-09-07T13:51:40;34.20;40.00
81202;DHT22;71068;47.662;-2.750;2023-09-07T13:54:07;33.40;41.80
81202;DHT22;71068;47.662;-2.750;2023-09-07T13:56:34;33.50;43.00
81202;DHT22;71068;47.662;-2.750;2023-09-07T13:59:02;33.70;43.20
81202;DHT22;71068;47.662;-2.750;2023-09-07T14:01:29;34.00;42.30
81202;DHT22;71068;47.662;-2.750;2023-09-07T14:03:56;34.50;42.80
81202;DHT22;71068;47.662;-2.750;2023-09-07T14:06:22;34.70;42.40
81202;DHT22;71068;47.662;-2.750;2023-09-07T14:08:51;34.90;41.20
81202;DHT22;71068;47.662;-2.750;2023-09-07T14:11:18;34.80;40.80
81202;DHT22;71068;47.662;-2.750;2023-09-07T14:13:47;34.70;42.50
81202;DHT22;71068;47.662;-2.750;2023-09-07T14:16:13;34.70;42.50
81202;DHT22;71068;47.662;-2.750;2023-09-07T14:18:39;34.70;40.60
81202;DHT22;71068;47.662;-2.750;2023-09-07T14:21:05;34.60;41.90
81202;DHT22;71068;47.662;-2.750;2023-09-07T14:23:30;34.40;42.50
81202;DHT22;71068;47.662;-2.750;2023-09-07T14:26:02;34.40;40.70
81202;DHT22;71068;47.662;-2.750;2023-09-07T14:28:28;34.30;40.00
81202;DHT22;71068;47.662;-2.750;2023-09-07T14:30:54;33.90;42.70
81202;DHT22;71068;47.662;-2.750;2023-09-07T14:33:20;33.60;42.50
81202;DHT22;71068;47.662;-2.750;2023-09-07T14:35:46;33.50;42.30
81202;DHT22;71068;47.662;-2.750;2023-09-07T14:38:14;33.40;43.20
81202;DHT22;71068;47.662;-2.750;2023-09-07T14:40:40;33.00;42.80
81202;DHT22;71068;47.662;-2.750;2023-09-07T14:43:08;32.80;43.20
81202;DHT22;71068;47.662;-2.750;2023-09-07T14:45:36;32.70;43.20
81202;DHT22;71068;47.662;-2.750;2023-09-07T14:48:04;32.40;43.80
81202;DHT22;71068;47.662;-2.750;2023-09-07T14:50:30;32.30;43.50
81202;DHT22;71068;47.662;-2.750;2023-09-07T14:52:57;31.70;44.20
81202;DHT22;71068;47.662;-2.750;2023-09-07T14:55:25;31.70;45.10
81202;DHT22;71068;47.662;-2.750;2023-09-07T14:57:51;31.70;45.30
81202;DHT22;71068;47.662;-2.750;2023-09-07T15:00:17;31.40;45.50
81202;DHT22;71068;47.662;-2.750;2023-09-07T15:02:43;31.50;45.80
81202;DHT22;71068;47.662;-2.750;2023-09-07T15:05:09;31.60;45.20
81202;DHT22;71068;47.662;-2.750;2023-09-07T15:07:36;31.80;45.80
81202;DHT22;71068;47.662;-2.750;2023-09-07T15:10:02;31.60;46.00
81202;DHT22;71068;47.662;-2.750;2023-09-07T15:12:35;31.60;45.80
81202;DHT22;71068;47.662;-2.750;2023-09-07T15:15:01;31.50;46.10
81202;DHT22;71068;47.662;-2.750;2023-09-07T15:17:27;31.50;46.20
81202;DHT22;71068;47.662;-2.750;2023-09-07T15:19:53;31.30;46.40
81202;DHT22;71068;47.662;-2.750;2023-09-07T15:22:23;31.30;46.50
81202;DHT22;71068;47.662;-2.750;2023-09-07T15:24:49;31.20;47.10
81202;DHT22;71068;47.662;-2.750;2023-09-07T15:27:15;31.10;47.40
81202;DHT22;71068;47.662;-2.750;2023-09-07T15:29:42;31.20;47.70
81202;DHT22;71068;47.662;-2.750;2023-09-07T15:32:08;31.20;47.50
81202;DHT22;71068;47.662;-2.750;2023-09-07T15:34:33;31.20;47.30
81202;DHT22;71068;47.662;-2.750;2023-09-07T15:37:05;31.30;47.60
81202;DHT22;71068;47.662;-2.750;2023-09-07T15:39:32;31.40;47.70
81202;DHT22;71068;47.662;-2.750;2023-09-07T15:41:58;31.40;47.90
81202;DHT22;71068;47.662;-2.750;2023-09-07T15:44:24;31.40;47.80
81202;DHT22;71068;47.662;-2.750;2023-09-07T15:46:50;31.50;48.00
81202;DHT22;71068;47.662;-2.750;2023-09-07T15:49:19;31.50;47.80
81202;DHT22;71068;47.662;-2.750;2023-09-07T15:51:53;31.70;47.40
81202;DHT22;71068;47.662;-2.750;2023-09-07T15:54:25;31.60;47.80
81202;DHT22;71068;47.662;-2.750;2023-09-07T15:56:51;31.50;47.40
81202;DHT22;71068;47.662;-2.750;2023-09-07T15:59:17;31.60;47.80
81202;DHT22;71068;47.662;-2.750;2023-09-07T16:01:43;31.40;47.90
81202;DHT22;71068;47.662;-2.750;2023-09-07T16:04:10;31.60;47.40
81202;DHT22;71068;47.662;-2.750;2023-09-07T16:06:36;31.60;47.70
81202;DHT22;71068;47.662;-2.750;2023-09-07T16:09:02;31.50;47.70
81202;DHT22;71068;47.662;-2.750;2023-09-07T16:11:35;31.30;47.90
81202;DHT22;71068;47.662;-2.750;2023-09-07T16:14:04;31.10;48.00
81202;DHT22;71068;47.662;-2.750;2023-09-07T16:16:43;31.10;48.30
81202;DHT22;71068;47.662;-2.750;2023-09-07T16:19:21;31.00;48.20
81202;DHT22;71068;47.662;-2.750;2023-09-07T16:21:57;30.90;48.50
81202;DHT22;71068;47.662;-2.750;2023-09-07T16:24:26;30.70;48.70
81202;DHT22;71068;47.662;-2.750;2023-09-07T16:26:54;30.70;48.60
81202;DHT22;71068;47.662;-2.750;2023-09-07T16:29:35;30.80;48.50